createdAt,value
2022-08-07T04:01:22.420Z,50.97
2022-08-07T04:03:55.023Z,50.88
2022-08-07T04:06:37.402Z,51.08
2022-08-07T04:09:16.184Z,51.05
2022-08-07T04:12:25.795Z,51.19
2022-08-07T04:14:43.572Z,51.05
2022-08-07T04:18:11.187Z,51.16
2022-08-07T04:20:11.208Z,51.01
2022-08-07T04:22:41.336Z,51.23
2022-08-07T04:25:23.652Z,51.25
2022-08-07T04:28:00.687Z,51.23
2022-08-07T04:30:35.775Z,51.00
2022-08-07T04:33:25.802Z,51.12
2022-08-07T04:35:54.479Z,51.05
2022-08-07T04:38:29.077Z,50.95
2022-08-07T04:40:58.154Z,51.14
2022-08-07T04:44:10.578Z,51.10
2022-08-07T04:47:04.116Z,51.12
2022-08-07T04:49:57.789Z,51.24
2022-08-07T04:52:51.325Z,51.02
2022-08-07T04:58:10.697Z,51.10
2022-08-07T04:59:07.755Z,50.84
2022-08-07T05:01:45.199Z,50.52
2022-08-07T05:04:47.233Z,50.42
2022-08-07T05:07:36.803Z,50.35
2022-08-07T05:10:32.872Z,50.21
2022-08-07T05:14:53.823Z,50.15
2022-08-07T05:16:04.405Z,50.24
2022-08-07T05:18:38.813Z,50.10
2022-08-07T05:21:12.610Z,50.22
2022-08-07T05:23:55.787Z,50.15
2022-08-07T05:26:28.126Z,50.27
2022-08-07T05:29:05.020Z,49.93
2022-08-07T05:31:39.579Z,50.05
2022-08-07T05:34:17.197Z,50.12
2022-08-07T05:36:52.726Z,50.06
2022-08-07T05:40:16.532Z,49.81
2022-08-07T05:42:33.613Z,49.74
2022-08-07T05:45:26.157Z,49.02
2022-08-07T05:48:02.466Z,47.73
2022-08-07T05:50:44.574Z,46.12
2022-08-07T05:54:09.541Z,44.77
2022-08-07T05:56:06.755Z,43.77
2022-08-07T05:58:41.975Z,42.72
2022-08-07T06:01:23.539Z,42.64
2022-08-07T06:04:01.035Z,42.00
2022-08-07T06:06:36.104Z,41.28
2022-08-07T06:09:06.708Z,41.29
2022-08-07T06:11:39.798Z,40.59
2022-08-07T06:14:11.546Z,40.78
2022-08-07T06:16:45.777Z,41.94
2022-08-07T06:19:52.318Z,41.95
2022-08-07T06:22:15.470Z,41.71
2022-08-07T06:24:57.892Z,41.63
2022-08-07T06:27:59.834Z,41.66
2022-08-07T06:30:31.783Z,41.82
2022-08-07T06:33:04.819Z,41.49
2022-08-07T06:35:45.261Z,41.50
2022-08-07T06:38:19.323Z,41.38
2022-08-07T06:40:54.253Z,41.31
2022-08-07T06:43:25.002Z,41.32
2022-08-07T06:46:12.181Z,41.06
2022-08-07T06:48:44.701Z,41.11
2022-08-07T06:51:31.295Z,41.23
2022-08-07T06:55:30.063Z,40.94
2022-08-07T06:56:57.231Z,40.92
2022-08-07T07:00:14.657Z,40.96
2022-08-07T07:02:53.608Z,41.06
2022-08-07T07:06:03.948Z,41.17
2022-08-07T07:08:07.175Z,41.08
2022-08-07T07:10:38.935Z,41.06
2022-08-07T07:13:56.672Z,41.10
2022-08-07T07:16:45.427Z,41.15
2022-08-07T07:19:56.513Z,41.11
2022-08-07T07:22:40.011Z,40.98
2022-08-07T07:26:31.168Z,41.14
2022-08-07T07:28:03.066Z,41.19
2022-08-07T07:35:00.730Z,41.26
2022-08-07T07:37:49.501Z,41.13
2022-08-07T07:40:26.144Z,40.98
2022-08-07T07:42:57.544Z,40.93
2022-08-07T07:46:36.868Z,40.87
2022-08-07T07:48:35.412Z,40.93
2022-08-07T07:51:07.997Z,40.71
2022-08-07T07:53:52.631Z,40.79
2022-08-07T07:56:30.005Z,40.63
2022-08-07T07:59:05.927Z,40.62
2022-08-07T08:02:02.212Z,40.63
2022-08-07T08:04:32.498Z,40.58
2022-08-07T08:07:07.619Z,40.52
2022-08-07T08:09:52.586Z,40.65
2022-08-07T08:12:52.476Z,40.53
2022-08-07T08:15:17.567Z,40.39
2022-08-07T08:17:57.097Z,40.23
2022-08-07T08:20:32.348Z,40.15
2022-08-07T08:23:20.778Z,40.25
2022-08-07T08:26:18.805Z,40.19
2022-08-07T08:28:51.631Z,40.13
2022-08-07T08:32:16.751Z,40.06
2022-08-07T08:34:36.523Z,39.85
2022-08-07T08:37:09.965Z,39.97
2022-08-07T08:39:58.447Z,39.89
2022-08-07T08:42:59.010Z,39.66
2022-08-07T08:46:00.848Z,39.68
2022-08-07T08:48:41.918Z,39.62
2022-08-07T08:51:49.473Z,39.72
2022-08-07T08:54:25.590Z,39.54
2022-08-07T08:56:57.740Z,39.53
2022-08-07T08:59:42.154Z,39.54
2022-08-07T09:02:36.754Z,39.76
2022-08-07T09:05:48.672Z,39.65
2022-08-07T09:08:24.406Z,39.79
2022-08-07T09:11:08.258Z,39.82
2022-08-07T09:14:12.017Z,39.38
2022-08-07T09:16:58.185Z,39.13
2022-08-07T09:19:55.173Z,39.27
2022-08-07T09:24:33.016Z,39.42
2022-08-07T09:25:59.156Z,39.43
2022-08-07T09:30:05.650Z,39.44
2022-08-07T09:31:55.171Z,39.37
2022-08-07T09:34:29.839Z,39.19
2022-08-07T09:37:06.619Z,39.20
2022-08-07T09:40:06.596Z,39.22
2022-08-07T09:42:56.205Z,38.99
2022-08-07T09:47:55.665Z,38.81
2022-08-07T09:50:02.458Z,38.73
2022-08-07T09:52:51.777Z,38.67
2022-08-07T09:55:29.426Z,38.88
2022-08-07T09:58:26.214Z,38.68
2022-08-07T10:01:02.090Z,38.70
2022-08-07T10:04:14.425Z,38.51
2022-08-07T10:07:31.713Z,38.20
2022-08-07T10:10:21.272Z,38.00
2022-08-07T10:12:59.190Z,38.04
2022-08-07T10:15:44.537Z,37.89
2022-08-07T10:18:29.607Z,37.81
2022-08-07T10:21:50.392Z,37.75
2022-08-07T10:24:25.990Z,38.15
2022-08-07T10:27:13.341Z,38.11
2022-08-07T10:30:04.354Z,37.89
2022-08-07T10:33:09.232Z,37.90
2022-08-07T10:36:11.398Z,37.98
2022-08-07T10:38:51.139Z,37.77
2022-08-07T10:41:52.893Z,37.66
2022-08-07T10:44:37.806Z,37.37
2022-08-07T10:47:27.215Z,37.40
2022-08-07T10:50:15.037Z,37.45
2022-08-07T10:53:08.929Z,37.37
2022-08-07T10:55:57.464Z,37.00
2022-08-07T10:58:59.608Z,37.30
2022-08-07T11:01:35.141Z,37.29
2022-08-07T11:04:23.334Z,37.11
2022-08-07T11:07:56.926Z,37.14
2022-08-07T11:10:17.763Z,37.05
2022-08-07T11:13:03.068Z,37.28
2022-08-07T11:15:36.199Z,37.16
2022-08-07T11:18:35.631Z,37.08
2022-08-07T11:21:15.656Z,37.10
2022-08-07T11:24:04.602Z,37.10
2022-08-07T11:26:50.032Z,37.11
2022-08-07T11:29:41.745Z,37.06
2022-08-07T11:32:25.385Z,36.98
2022-08-07T11:34:58.908Z,36.91
2022-08-07T11:37:57.952Z,36.81
2022-08-07T11:40:59.735Z,36.75
2022-08-07T11:43:54.327Z,36.74
2022-08-07T11:46:28.098Z,36.65
2022-08-07T11:50:25.223Z,36.58
2022-08-07T11:52:42.187Z,36.59
2022-08-07T11:56:25.568Z,36.57
2022-08-07T11:58:40.962Z,36.37
2022-08-07T12:01:22.177Z,36.21
2022-08-07T12:04:03.874Z,36.21
2022-08-07T12:06:51.590Z,36.23
2022-08-07T12:09:48.997Z,36.11
2022-08-07T12:12:46.896Z,36.33
2022-08-07T12:15:35.881Z,36.10
2022-08-07T12:18:29.903Z,35.84
2022-08-07T12:22:36.211Z,35.97
2022-08-07T12:25:07.771Z,35.81
2022-08-07T12:28:08.979Z,35.84
2022-08-07T12:30:46.694Z,35.62
2022-08-07T12:33:28.470Z,35.61
2022-08-07T12:36:02.294Z,35.49
2022-08-07T12:38:42.927Z,35.66
2022-08-07T12:41:18.428Z,35.55
2022-08-07T12:44:03.525Z,35.31
2022-08-07T12:46:37.290Z,35.41
2022-08-07T12:49:40.112Z,35.31
2022-08-07T12:52:17.904Z,35.38
2022-08-07T12:55:05.165Z,35.12
2022-08-07T12:58:00.461Z,35.00
2022-08-07T13:00:52.533Z,34.88
2022-08-07T13:04:00.559Z,34.85
2022-08-07T13:07:03.159Z,34.93
2022-08-07T13:10:28.361Z,34.80
2022-08-07T13:12:52.371Z,34.94
2022-08-07T13:15:35.150Z,34.93
2022-08-07T13:18:26.471Z,34.62
2022-08-07T13:21:37.146Z,34.94
2022-08-07T13:24:15.984Z,34.98
2022-08-07T13:27:06.713Z,35.03
2022-08-07T13:29:47.837Z,35.10
2022-08-07T13:32:32.611Z,35.25
2022-08-07T13:35:16.082Z,35.27
2022-08-07T13:38:00.919Z,35.27
2022-08-07T13:40:42.488Z,35.09
2022-08-07T13:43:16.194Z,35.29
2022-08-07T13:46:11.893Z,35.35
2022-08-07T13:48:39.043Z,35.33
2022-08-07T13:51:26.995Z,35.27
2022-08-07T13:54:03.502Z,35.23
2022-08-07T13:56:36.149Z,35.34
2022-08-07T13:59:20.070Z,35.36
2022-08-07T14:02:08.147Z,35.06
2022-08-07T14:05:02.147Z,35.00
2022-08-07T14:08:00.628Z,34.92
2022-08-07T14:10:42.376Z,35.05
2022-08-07T14:13:18.146Z,34.65
2022-08-07T14:15:54.463Z,34.67
2022-08-07T14:18:33.216Z,34.67
2022-08-07T14:22:00.921Z,34.69
2022-08-07T14:24:14.172Z,34.27
2022-08-07T14:26:52.223Z,34.27
2022-08-07T14:30:09.434Z,34.30
2022-08-07T14:32:15.082Z,34.14
2022-08-07T14:34:47.295Z,33.94
2022-08-07T14:37:17.861Z,34.10
2022-08-07T14:40:16.470Z,33.95
2022-08-07T14:43:01.424Z,33.80
2022-08-07T14:45:46.590Z,33.94
2022-08-07T14:48:22.233Z,33.76
2022-08-07T14:51:00.464Z,33.78
2022-08-07T14:54:08.824Z,33.95
2022-08-07T14:56:29.580Z,33.80
2022-08-07T14:59:14.083Z,33.75
2022-08-07T15:05:01.768Z,33.64
2022-08-07T15:07:51.229Z,33.30
2022-08-07T15:10:26.545Z,33.47
2022-08-07T15:13:06.419Z,33.28
2022-08-07T15:15:52.202Z,33.58
2022-08-07T15:18:34.915Z,33.23
2022-08-07T15:21:44.288Z,33.24
2022-08-07T15:25:13.546Z,33.41
2022-08-07T15:27:11.262Z,33.52
2022-08-07T15:30:04.836Z,33.59
2022-08-07T15:32:40.026Z,33.77
2022-08-07T15:35:26.633Z,33.69
2022-08-07T15:44:15.256Z,33.27
2022-08-07T15:46:51.790Z,33.00
2022-08-07T15:50:03.733Z,33.11
2022-08-07T15:52:30.538Z,33.17
2022-08-07T15:55:03.912Z,33.20
2022-08-07T15:57:48.504Z,33.10
2022-08-07T16:00:31.216Z,33.07
2022-08-07T16:03:22.043Z,33.07
2022-08-07T16:06:06.663Z,33.09
2022-08-07T16:08:42.711Z,32.95
2022-08-07T16:11:31.470Z,32.97
2022-08-07T16:14:39.120Z,32.85
2022-08-07T16:18:02.553Z,33.02
2022-08-07T16:20:42.526Z,33.16
2022-08-07T16:23:53.458Z,33.07
2022-08-07T16:26:30.480Z,33.07
2022-08-07T16:30:11.033Z,33.20
2022-08-07T16:32:34.940Z,33.16
2022-08-07T16:35:52.403Z,33.26
2022-08-07T16:39:01.424Z,33.36
2022-08-07T16:41:55.836Z,33.50
2022-08-07T16:44:47.547Z,33.59
2022-08-07T16:47:49.651Z,33.61
2022-08-07T16:50:38.915Z,33.69
2022-08-07T16:54:02.567Z,33.74
2022-08-07T16:56:44.226Z,33.82
2022-08-07T16:59:20.647Z,33.89
2022-08-07T17:01:57.467Z,33.87
2022-08-07T17:04:50.993Z,33.95
2022-08-07T17:07:57.920Z,34.01
2022-08-07T17:10:54.220Z,34.10
2022-08-07T17:14:18.340Z,34.21
2022-08-07T17:16:55.850Z,34.19
2022-08-07T17:20:01.896Z,34.30
2022-08-07T17:22:46.471Z,34.28
2022-08-07T17:25:47.485Z,34.24
2022-08-07T17:28:25.405Z,34.41
2022-08-07T17:31:16.465Z,34.44
2022-08-07T17:34:32.702Z,34.50
2022-08-07T17:36:48.984Z,34.65
2022-08-07T17:39:57.883Z,34.74
2022-08-07T17:42:59.472Z,34.85
2022-08-07T17:45:37.201Z,34.82
2022-08-07T17:48:16.838Z,34.92
2022-08-07T17:51:21.476Z,35.14
2022-08-07T17:54:39.570Z,35.12
2022-08-07T17:57:24.031Z,35.22
2022-08-07T18:00:14.254Z,35.35
2022-08-07T18:03:18.168Z,35.36
2022-08-07T18:06:03.726Z,35.57
2022-08-07T18:09:00.647Z,35.55
2022-08-07T18:12:18.116Z,35.66
2022-08-07T18:14:46.113Z,35.65
2022-08-07T18:18:33.045Z,35.70
2022-08-07T18:21:08.044Z,35.95
2022-08-07T18:24:33.163Z,36.08
2022-08-07T18:27:20.908Z,36.16
2022-08-07T18:30:06.736Z,36.03
2022-08-07T18:32:56.195Z,36.21
2022-08-07T18:35:57.223Z,36.24
2022-08-07T18:40:06.589Z,36.41
2022-08-07T18:42:16.726Z,36.40
2022-08-07T18:45:43.596Z,36.64
2022-08-07T18:48:04.924Z,36.79
2022-08-07T18:51:14.906Z,36.78
2022-08-07T18:53:55.465Z,37.00
2022-08-07T18:56:37.645Z,37.00
2022-08-07T18:59:46.821Z,37.14
2022-08-07T19:02:34.454Z,37.24
2022-08-07T19:05:24.738Z,37.39
2022-08-07T19:08:10.811Z,37.47
2022-08-07T19:10:59.319Z,37.66
2022-08-07T19:13:49.977Z,37.87
2022-08-07T19:17:00.747Z,37.93
2022-08-07T19:19:36.253Z,37.79
2022-08-07T19:27:02.029Z,38.34
2022-08-07T19:31:05.816Z,38.37
2022-08-07T19:32:28.968Z,38.40
2022-08-07T19:35:11.076Z,38.67
2022-08-07T19:37:55.268Z,38.63
2022-08-07T19:40:30.902Z,38.72
2022-08-07T19:43:11.015Z,38.89
2022-08-07T19:46:05.357Z,38.92
2022-08-07T19:48:54.566Z,39.00
2022-08-07T19:51:53.126Z,39.12
2022-08-07T19:54:30.888Z,39.16
2022-08-07T19:58:01.761Z,39.29
2022-08-07T20:00:08.923Z,39.40
2022-08-07T20:02:52.121Z,39.41
2022-08-07T20:05:28.137Z,39.53
2022-08-07T20:08:03.907Z,39.63
2022-08-07T20:10:52.154Z,39.91
2022-08-07T20:13:34.337Z,39.74
2022-08-07T20:16:04.677Z,40.05
2022-08-07T20:18:34.494Z,40.02
2022-08-07T20:21:21.045Z,40.13
2022-08-07T20:24:07.411Z,40.28
2022-08-07T20:26:45.870Z,40.33
2022-08-07T20:29:47.109Z,40.53
2022-08-07T20:32:22.889Z,40.60
2022-08-07T20:35:25.258Z,40.70
2022-08-07T20:37:58.852Z,40.83
2022-08-07T20:40:32.298Z,40.88
2022-08-07T20:43:14.918Z,40.98
2022-08-07T20:46:29.014Z,41.09
2022-08-07T20:49:53.868Z,41.08
2022-08-07T20:51:35.937Z,41.20
2022-08-07T20:54:12.227Z,41.22
2022-08-07T20:56:51.676Z,41.39
2022-08-07T21:00:05.245Z,41.43
2022-08-07T21:02:38.370Z,41.53
2022-08-07T21:05:16.350Z,41.65
2022-08-07T21:07:50.301Z,41.68
2022-08-07T21:10:29.448Z,41.79
2022-08-07T21:13:03.518Z,41.93
2022-08-07T21:15:58.434Z,41.93
2022-08-07T21:18:33.518Z,42.05
2022-08-07T21:21:05.284Z,42.14
2022-08-07T21:24:12.362Z,42.26
2022-08-07T21:27:09.851Z,42.41
2022-08-07T21:29:53.067Z,42.43
2022-08-07T21:32:47.866Z,42.51
2022-08-07T21:35:34.557Z,42.59
2022-08-07T21:38:31.056Z,42.74
2022-08-07T21:41:24.526Z,42.76
2022-08-07T21:44:08.209Z,42.88
2022-08-07T21:46:55.563Z,42.94
2022-08-07T21:49:40.625Z,43.01
2022-08-07T21:52:58.324Z,43.12
2022-08-07T21:55:48.441Z,43.20
2022-08-07T21:58:52.227Z,43.41
2022-08-07T22:02:07.188Z,43.38
2022-08-07T22:04:25.620Z,43.57
2022-08-07T22:07:02.084Z,43.72
2022-08-07T22:09:38.054Z,43.73
2022-08-07T22:12:31.527Z,43.75
2022-08-07T22:16:42.456Z,43.81
2022-08-07T22:18:02.263Z,43.90
2022-08-07T22:20:39.921Z,43.99
2022-08-07T22:23:29.241Z,44.16
2022-08-07T22:26:06.142Z,44.19
2022-08-07T22:28:53.918Z,44.28
2022-08-07T22:32:06.018Z,44.28
2022-08-07T22:34:49.717Z,44.46
2022-08-07T22:37:28.135Z,44.41
2022-08-07T22:40:27.732Z,44.49
2022-08-07T22:43:19.357Z,44.56
2022-08-07T22:46:42.727Z,44.75
2022-08-07T22:49:33.975Z,44.83
2022-08-07T22:52:37.143Z,45.00
2022-08-07T22:55:38.928Z,45.01
2022-08-07T22:58:22.170Z,45.07
